createdAt,value
2018-10-17T00:05:02.225Z,101598.00
2018-10-17T00:10:05.290Z,101605.78
2018-10-17T00:15:08.093Z,101607.09
2018-10-17T00:20:10.669Z,101599.85
2018-10-17T00:25:12.836Z,101607.30
2018-10-17T00:30:14.890Z,101605.48
2018-10-17T00:35:17.043Z,101602.25
2018-10-17T00:40:19.261Z,101600.94
2018-10-17T00:45:21.310Z,101596.64
2018-10-17T00:50:23.418Z,101600.53
2018-10-17T00:55:25.519Z,101596.20
2018-10-17T01:00:27.682Z,101596.01
2018-10-17T01:05:29.828Z,101589.89
2018-10-17T01:10:31.901Z,101591.36
2018-10-17T01:15:34.023Z,101587.94
2018-10-17T01:20:36.208Z,101588.58
2018-10-17T01:25:38.352Z,101587.47
2018-10-17T01:30:40.475Z,101579.17
2018-10-17T01:35:42.599Z,101571.10
2018-10-17T01:40:44.714Z,101566.17
2018-10-17T01:45:46.847Z,101562.96
2018-10-17T01:50:48.979Z,101567.38
2018-10-17T01:55:51.111Z,101565.89
2018-10-17T02:00:53.583Z,101566.38
2018-10-17T02:05:55.689Z,101566.41
2018-10-17T02:10:57.795Z,101567.12
2018-10-17T02:16:00.169Z,101564.98
2018-10-17T02:21:02.300Z,101565.30
2018-10-17T02:26:04.443Z,101563.27
2018-10-17T02:31:06.582Z,101559.38
2018-10-17T02:36:08.691Z,101563.99
2018-10-17T02:41:10.904Z,101553.86
2018-10-17T02:46:12.954Z,101554.92
2018-10-17T02:51:15.078Z,101551.11
2018-10-17T02:56:17.201Z,101550.88
2018-10-17T03:01:19.419Z,101549.25
2018-10-17T03:06:21.537Z,101558.22
2018-10-17T03:11:25.816Z,101554.96
2018-10-17T03:16:28.296Z,101556.12
2018-10-17T03:21:30.460Z,101563.87
2018-10-17T03:26:32.581Z,101575.79
2018-10-17T03:31:34.819Z,101586.28
2018-10-17T03:36:36.946Z,101585.16
2018-10-17T03:41:39.093Z,101584.05
2018-10-17T03:46:41.191Z,101591.92
2018-10-17T03:51:43.321Z,101584.56
2018-10-17T03:56:45.438Z,101580.91
2018-10-17T04:01:47.617Z,101574.95
2018-10-17T04:06:49.748Z,101567.52
2018-10-17T04:11:51.882Z,101566.11
2018-10-17T04:16:54.080Z,101576.86
2018-10-17T04:21:56.111Z,101575.52
2018-10-17T04:26:58.295Z,101582.58
2018-10-17T04:32:00.394Z,101582.06
2018-10-17T04:37:02.583Z,101579.30
2018-10-17T04:42:04.779Z,101576.55
2018-10-17T04:47:07.000Z,101582.19
2018-10-17T04:52:09.030Z,101586.16
2018-10-17T04:57:11.160Z,101593.64
2018-10-17T05:02:15.885Z,101593.97
2018-10-17T05:07:18.091Z,101592.47
2018-10-17T05:12:20.152Z,101593.83
2018-10-17T05:17:22.300Z,101594.68
2018-10-17T05:22:24.419Z,101595.69
2018-10-17T05:27:26.576Z,101595.59
2018-10-17T05:32:28.726Z,101599.06
2018-10-17T05:37:31.153Z,101599.85
2018-10-17T05:42:33.169Z,101611.24
2018-10-17T05:47:35.317Z,101606.77
2018-10-17T05:52:37.442Z,101611.29
2018-10-17T05:57:39.575Z,101608.39
2018-10-17T06:02:41.764Z,101604.94
2018-10-17T06:07:43.861Z,101603.08
2018-10-17T06:12:46.013Z,101601.49
2018-10-17T06:17:48.124Z,101600.03
2018-10-17T06:22:50.251Z,101604.00
2018-10-17T06:27:52.882Z,101607.97
2018-10-17T06:32:55.005Z,101608.66
2018-10-17T06:37:57.171Z,101610.99
2018-10-17T06:42:59.297Z,101603.28
2018-10-17T06:48:01.439Z,101597.80
2018-10-17T06:53:03.654Z,101595.38
2018-10-17T06:58:05.722Z,101595.36
2018-10-17T07:03:07.880Z,101587.66
2018-10-17T07:08:10.016Z,101592.75
2018-10-17T07:13:12.152Z,101591.67
2018-10-17T07:18:14.279Z,101592.69
2018-10-17T07:23:16.521Z,101590.33
2018-10-17T07:28:18.592Z,101588.41
2018-10-17T07:33:20.771Z,101589.56
2018-10-17T07:38:22.907Z,101589.92
2018-10-17T07:43:25.096Z,101596.73
2018-10-17T07:48:27.406Z,101608.21
2018-10-17T07:53:29.629Z,101605.64
2018-10-17T07:58:31.861Z,101610.13
2018-10-17T08:03:34.043Z,101614.72
2018-10-17T08:08:36.170Z,101610.63
2018-10-17T08:13:38.346Z,101615.65
2018-10-17T08:18:40.473Z,101621.75
2018-10-17T08:23:42.632Z,101623.97
2018-10-17T08:28:44.789Z,101624.58
2018-10-17T08:33:46.923Z,101620.83
2018-10-17T08:38:49.133Z,101620.27
2018-10-17T08:43:51.327Z,101627.77
2018-10-17T08:48:53.418Z,101638.88
2018-10-17T08:53:55.584Z,101636.55
2018-10-17T08:58:57.730Z,101632.09
2018-10-17T09:04:00.395Z,101622.55
2018-10-17T09:09:04.173Z,101628.06
2018-10-17T09:14:06.304Z,101629.85
2018-10-17T09:19:09.134Z,101629.78
2018-10-17T09:24:11.322Z,101630.05
2018-10-17T09:29:13.316Z,101619.87
2018-10-17T09:34:15.471Z,101615.42
2018-10-17T09:39:17.497Z,101621.98
2018-10-17T09:44:19.598Z,101633.33
2018-10-17T09:49:21.692Z,101633.47
2018-10-17T09:54:23.759Z,101635.86
2018-10-17T09:59:25.855Z,101637.28
2018-10-17T10:04:27.989Z,101626.38
2018-10-17T10:09:30.068Z,101627.44
2018-10-17T10:14:32.141Z,101613.91
2018-10-17T10:19:34.220Z,101618.08
2018-10-17T10:24:36.368Z,101612.84
2018-10-17T10:29:38.393Z,101605.69
2018-10-17T10:34:40.469Z,101606.23
2018-10-17T10:39:42.596Z,101598.36
2018-10-17T10:44:44.763Z,101602.09
2018-10-17T10:49:46.793Z,101598.38
2018-10-17T10:54:48.907Z,101591.51
2018-10-17T10:59:50.977Z,101587.50
2018-10-17T11:04:53.108Z,101578.55
2018-10-17T11:09:55.183Z,101577.44
2018-10-17T11:14:57.499Z,101574.30
2018-10-17T11:20:00.203Z,101578.30
2018-10-17T11:25:02.329Z,101574.92
2018-10-17T11:30:05.968Z,101572.55
2018-10-17T11:35:09.203Z,101564.92
2018-10-17T11:40:11.392Z,101563.22
2018-10-17T11:45:13.495Z,101559.34
2018-10-17T11:50:15.529Z,101556.31
2018-10-17T11:55:17.641Z,101555.86
2018-10-17T12:00:19.697Z,101557.59
2018-10-17T12:05:22.239Z,101554.64
2018-10-17T12:10:23.943Z,101554.11
2018-10-17T12:15:26.052Z,101548.89
2018-10-17T12:20:28.137Z,101539.84
2018-10-17T12:25:30.219Z,101540.84
2018-10-17T12:30:32.280Z,101533.08
2018-10-17T12:35:34.398Z,101534.27
2018-10-17T12:40:36.756Z,101523.44
2018-10-17T12:45:38.715Z,101521.06
2018-10-17T12:50:40.781Z,101533.84
2018-10-17T12:55:42.887Z,101524.53
2018-10-17T13:00:45.018Z,101536.86
2018-10-17T13:05:47.156Z,101543.06
2018-10-17T13:10:49.305Z,101536.05
2018-10-17T13:15:51.412Z,101532.59
2018-10-17T13:20:53.569Z,101530.33
2018-10-17T13:25:55.676Z,101534.48
2018-10-17T13:30:57.825Z,101524.98
2018-10-17T13:35:59.931Z,101522.68
2018-10-17T13:41:02.137Z,101520.88
2018-10-17T13:46:04.388Z,101520.38
2018-10-17T13:51:06.547Z,101518.02
2018-10-17T13:56:08.718Z,101517.01
2018-10-17T14:01:10.928Z,101510.70
2018-10-17T14:06:13.130Z,101515.43
2018-10-17T14:11:15.552Z,101518.52
2018-10-17T14:16:17.704Z,101516.22
2018-10-17T14:21:19.895Z,101518.41
2018-10-17T14:26:21.993Z,101514.63
2018-10-17T14:31:24.117Z,101518.92
2018-10-17T14:36:26.425Z,101518.13
2018-10-17T14:41:28.397Z,101519.45
2018-10-17T14:46:30.569Z,101523.70
2018-10-17T14:51:32.731Z,101530.94
2018-10-17T14:56:34.861Z,101525.30
2018-10-17T15:01:37.028Z,101521.34
2018-10-17T15:06:39.232Z,101524.78
2018-10-17T15:11:41.450Z,101518.28
2018-10-17T15:16:43.599Z,101519.97
2018-10-17T15:21:45.879Z,101527.63
2018-10-17T15:26:48.083Z,101526.70
2018-10-17T15:31:50.332Z,101527.91
2018-10-17T15:36:53.082Z,101533.33
2018-10-17T15:41:55.303Z,101538.42
2018-10-17T15:46:57.511Z,101537.88
2018-10-17T15:51:59.716Z,101542.06
2018-10-17T15:57:02.026Z,101544.16
2018-10-17T16:02:05.727Z,101548.47
2018-10-17T16:07:07.984Z,101548.42
2018-10-17T16:12:10.282Z,101556.06
2018-10-17T16:17:12.618Z,101552.58
2018-10-17T16:22:14.817Z,101556.39
2018-10-17T16:27:18.102Z,101555.91
2018-10-17T16:32:20.688Z,101559.66
2018-10-17T16:37:22.954Z,101559.61
2018-10-17T16:42:25.207Z,101562.95
2018-10-17T16:47:28.480Z,101569.36
2018-10-17T16:52:30.783Z,101571.78
2018-10-17T16:57:34.069Z,101578.19
2018-10-17T17:07:52.863Z,101598.23
2018-10-17T17:12:55.936Z,101598.25
2018-10-17T17:17:59.055Z,101609.03
2018-10-17T17:23:02.178Z,101618.20
2018-10-17T17:28:05.147Z,101615.33
2018-10-17T17:33:10.852Z,101615.72
2018-10-17T17:38:14.233Z,101619.10
2018-10-17T17:43:18.255Z,101613.48
2018-10-17T17:48:22.675Z,101621.03
2018-10-17T17:53:28.951Z,101618.90
2018-10-17T17:58:33.651Z,101621.58
2018-10-17T18:03:37.672Z,101623.13
2018-10-17T18:14:00.052Z,101627.39
2018-10-17T18:24:15.720Z,101636.12
2018-10-17T18:29:19.302Z,101637.94
2018-10-17T18:34:22.734Z,101641.65
2018-10-17T18:39:28.543Z,101642.01
2018-10-17T18:44:32.095Z,101651.86
2018-10-17T18:49:37.108Z,101654.44
2018-10-17T18:54:40.630Z,101663.08
2018-10-17T18:59:43.685Z,101656.94
2018-10-17T19:04:46.087Z,101667.36
2018-10-17T19:09:49.734Z,101669.59
2018-10-17T19:14:52.582Z,101674.65
2018-10-17T19:19:56.140Z,101674.41
2018-10-17T19:24:58.740Z,101678.52
2018-10-17T19:30:01.306Z,101681.97
2018-10-17T19:35:04.420Z,101692.98
2018-10-17T19:40:07.868Z,101692.36
2018-10-17T19:45:10.763Z,101702.17
2018-10-17T19:50:12.933Z,101706.46
2018-10-17T19:55:15.212Z,101708.61
2018-10-17T20:00:17.395Z,101708.72
2018-10-17T20:05:19.666Z,101710.89
2018-10-17T20:10:21.924Z,101720.34
2018-10-17T20:15:24.150Z,101716.39
2018-10-17T20:20:26.660Z,101719.78
2018-10-17T20:25:28.923Z,101717.23
2018-10-17T20:30:31.105Z,101711.98
2018-10-17T20:35:33.252Z,101714.00
2018-10-17T20:40:35.417Z,101710.19
2018-10-17T20:45:37.611Z,101711.77
2018-10-17T20:50:39.767Z,101718.20
2018-10-17T20:55:42.289Z,101718.70
2018-10-17T21:00:44.540Z,101723.68
2018-10-17T21:05:46.720Z,101718.60
2018-10-17T21:10:48.924Z,101732.67
2018-10-17T21:15:51.151Z,101734.63
2018-10-17T21:20:53.743Z,101727.27
2018-10-17T21:25:55.895Z,101727.61
2018-10-17T21:30:58.050Z,101734.73
2018-10-17T21:36:00.197Z,101736.91
2018-10-17T21:41:02.337Z,101746.45
2018-10-17T21:46:04.891Z,101742.34
2018-10-17T21:51:07.040Z,101740.95
2018-10-17T21:56:09.297Z,101739.38
2018-10-17T22:01:11.410Z,101732.88
2018-10-17T22:06:13.586Z,101734.54
2018-10-17T22:11:15.728Z,101729.33
2018-10-17T22:16:17.855Z,101729.05
2018-10-17T22:21:20.031Z,101724.41
2018-10-17T22:26:22.225Z,101731.53
2018-10-17T22:31:24.396Z,101731.04
2018-10-17T22:36:26.514Z,101729.50
2018-10-17T22:41:28.696Z,101731.97
2018-10-17T22:46:30.860Z,101734.31
2018-10-17T22:51:33.011Z,101733.80
2018-10-17T22:56:35.481Z,101720.95
2018-10-17T23:01:37.823Z,101733.24
2018-10-17T23:06:39.986Z,101724.77
2018-10-17T23:11:42.843Z,101725.23
2018-10-17T23:16:44.984Z,101719.20
2018-10-17T23:21:47.161Z,101715.16
2018-10-17T23:26:49.267Z,101717.62
2018-10-17T23:31:51.406Z,101725.31
2018-10-17T23:36:53.546Z,101730.08
2018-10-17T23:41:55.639Z,101729.39
2018-10-17T23:46:57.791Z,101737.58
2018-10-17T23:51:59.952Z,101735.25
2018-10-17T23:57:02.099Z,101734.33
